sensor_id;sensor_type;location;lat;lon;timestamp;pressure;altitude;pressure_sealevel;temperature;humidity
59103;BME280;43999;51.660;5.616;2023-04-02T00:09:22;100873.81;;;6.12;100.00
59103;BME280;43999;51.660;5.616;2023-04-02T00:12:17;100871.41;;;6.05;100.00
59103;BME280;43999;51.660;5.616;2023-04-02T00:14:56;100877.34;;;6.10;100.00
59103;BME280;43999;51.660;5.616;2023-04-02T00:17:24;100902.59;;;6.07;100.00
59103;BME280;43999;51.660;5.616;2023-04-02T00:20:04;100888.91;;;6.02;100.00
59103;BME280;43999;51.660;5.616;2023-04-02T00:22:34;100889.91;;;5.96;100.00
59103;BME280;43999;51.660;5.616;2023-04-02T00:25:11;100890.84;;;5.95;100.00
59103;BME280;43999;51.660;5.616;2023-04-02T00:27:40;100898.56;;;5.98;100.00
59103;BME280;43999;51.660;5.616;2023-04-02T00:30:13;100902.06;;;5.96;100.00
59103;BME280;43999;51.660;5.616;2023-04-02T00:32:42;100907.28;;;5.96;100.00
59103;BME280;43999;51.660;5.616;2023-04-02T00:35:24;100911.69;;;5.93;100.00
59103;BME280;43999;51.660;5.616;2023-04-02T00:37:54;100912.53;;;5.94;100.00
59103;BME280;43999;51.660;5.616;2023-04-02T00:40:27;100924.75;;;5.92;100.00
59103;BME280;43999;51.660;5.616;2023-04-02T00:43:00;100919.66;;;5.89;100.00
59103;BME280;43999;51.660;5.616;2023-04-02T00:45:35;100931.84;;;5.87;100.00
59103;BME280;43999;51.660;5.616;2023-04-02T00:48:36;100939.69;;;5.85;100.00
59103;BME280;43999;51.660;5.616;2023-04-02T00:51:27;100939.72;;;5.84;100.00
59103;BME280;43999;51.660;5.616;2023-04-02T00:54:03;100935.66;;;5.77;100.00
59103;BME280;43999;51.660;5.616;2023-04-02T00:56:47;100935.34;;;5.86;100.00
59103;BME280;43999;51.660;5.616;2023-04-02T00:59:41;100951.09;;;5.81;100.00
59103;BME280;43999;51.660;5.616;2023-04-02T01:02:34;100950.22;;;5.81;100.00
59103;BME280;43999;51.660;5.616;2023-04-02T01:08:11;100965.03;;;5.79;100.00
59103;BME280;43999;51.660;5.616;2023-04-02T01:23:24;100993.03;;;5.70;100.00
59103;BME280;43999;51.660;5.616;2023-04-02T01:29:27;100990.78;;;5.60;100.00
59103;BME280;43999;51.660;5.616;2023-04-02T01:32:14;100995.94;;;5.61;100.00
59103;BME280;43999;51.660;5.616;2023-04-02T01:34:49;101005.50;;;5.59;100.00
59103;BME280;43999;51.660;5.616;2023-04-02T01:38:12;101007.34;;;5.55;100.00
59103;BME280;43999;51.660;5.616;2023-04-02T01:40:58;101010.97;;;5.50;100.00
59103;BME280;43999;51.660;5.616;2023-04-02T01:43:57;101026.53;;;5.51;100.00
59103;BME280;43999;51.660;5.616;2023-04-02T01:46:37;101030.94;;;5.49;100.00
59103;BME280;43999;51.660;5.616;2023-04-02T01:49:16;101024.97;;;5.46;100.00
59103;BME280;43999;51.660;5.616;2023-04-02T01:51:52;101038.88;;;5.45;100.00
59103;BME280;43999;51.660;5.616;2023-04-02T01:54:25;101034.50;;;5.45;100.00
59103;BME280;43999;51.660;5.616;2023-04-02T01:56:55;101039.78;;;5.42;100.00
59103;BME280;43999;51.660;5.616;2023-04-02T01:59:24;101045.94;;;5.39;100.00
59103;BME280;43999;51.660;5.616;2023-04-02T02:02:00;101054.63;;;5.38;100.00
59103;BME280;43999;51.660;5.616;2023-04-02T02:04:30;101062.44;;;5.38;100.00
59103;BME280;43999;51.660;5.616;2023-04-02T02:07:00;101062.59;;;5.32;100.00
59103;BME280;43999;51.660;5.616;2023-04-02T02:09:33;101073.00;;;5.32;100.00
59103;BME280;43999;51.660;5.616;2023-04-02T02:12:03;101072.97;;;5.34;100.00
59103;BME280;43999;51.660;5.616;2023-04-02T02:14:32;101083.25;;;5.37;100.00
59103;BME280;43999;51.660;5.616;2023-04-02T02:17:01;101069.38;;;5.38;100.00
59103;BME280;43999;51.660;5.616;2023-04-02T02:19:50;101084.97;;;5.38;100.00
59103;BME280;43999;51.660;5.616;2023-04-02T02:22:32;101090.25;;;5.35;100.00
59103;BME280;43999;51.660;5.616;2023-04-02T02:25:15;101097.22;;;5.33;100.00
59103;BME280;43999;51.660;5.616;2023-04-02T02:28:08;101092.13;;;5.30;100.00
59103;BME280;43999;51.660;5.616;2023-04-02T02:31:01;101099.03;;;5.31;100.00
59103;BME280;43999;51.660;5.616;2023-04-02T02:33:38;101099.78;;;5.34;100.00
59103;BME280;43999;51.660;5.616;2023-04-02T02:36:30;101129.25;;;5.35;100.00
59103;BME280;43999;51.660;5.616;2023-04-02T02:42:38;101126.84;;;5.27;100.00
59103;BME280;43999;51.660;5.616;2023-04-02T02:45:14;101133.88;;;5.24;100.00
59103;BME280;43999;51.660;5.616;2023-04-02T02:47:45;101137.41;;;5.21;100.00
59103;BME280;43999;51.660;5.616;2023-04-02T02:50:27;101141.06;;;5.14;100.00
59103;BME280;43999;51.660;5.616;2023-04-02T02:53:05;101141.06;;;5.14;100.00
59103;BME280;43999;51.660;5.616;2023-04-02T02:55:41;101151.44;;;5.14;100.00
59103;BME280;43999;51.660;5.616;2023-04-02T02:58:18;101159.22;;;5.14;100.00
59103;BME280;43999;51.660;5.616;2023-04-02T03:01:11;101157.63;;;5.10;100.00
59103;BME280;43999;51.660;5.616;2023-04-02T03:03:45;101162.00;;;5.08;100.00
59103;BME280;43999;51.660;5.616;2023-04-02T03:06:16;101174.19;;;5.06;100.00
59103;BME280;43999;51.660;5.616;2023-04-02T03:09:15;101176.84;;;5.02;100.00
59103;BME280;43999;51.660;5.616;2023-04-02T03:17:27;101185.41;;;5.06;100.00
59103;BME280;43999;51.660;5.616;2023-04-02T03:20:39;101189.03;;;5.00;100.00
59103;BME280;43999;51.660;5.616;2023-04-02T03:23:37;101197.78;;;4.96;100.00
59103;BME280;43999;51.660;5.616;2023-04-02T03:29:25;101220.34;;;4.94;100.00
59103;BME280;43999;51.660;5.616;2023-04-02T03:34:51;101223.22;;;4.83;100.00
59103;BME280;43999;51.660;5.616;2023-04-02T03:37:33;101228.47;;;4.80;100.00
59103;BME280;43999;51.660;5.616;2023-04-02T03:40:40;101235.41;;;4.78;100.00
59103;BME280;43999;51.660;5.616;2023-04-02T03:43:25;101249.31;;;4.77;100.00
59103;BME280;43999;51.660;5.616;2023-04-02T03:46:15;101251.91;;;4.77;100.00
59103;BME280;43999;51.660;5.616;2023-04-02T03:49:17;101271.88;;;4.74;100.00
59103;BME280;43999;51.660;5.616;2023-04-02T03:52:02;101279.59;;;4.77;100.00
59103;BME280;43999;51.660;5.616;2023-04-02T03:54:33;101286.56;;;4.75;100.00
59103;BME280;43999;51.660;5.616;2023-04-02T03:57:01;101285.66;;;4.77;100.00
59103;BME280;43999;51.660;5.616;2023-04-02T03:59:43;101287.47;;;4.72;100.00
59103;BME280;43999;51.660;5.616;2023-04-02T04:02:44;101294.50;;;4.69;100.00
59103;BME280;43999;51.660;5.616;2023-04-02T04:05:42;101296.19;;;4.71;100.00
59103;BME280;43999;51.660;5.616;2023-04-02T04:08:42;101315.22;;;4.70;100.00
59103;BME280;43999;51.660;5.616;2023-04-02T04:11:25;101310.94;;;4.67;100.00
59103;BME280;43999;51.660;5.616;2023-04-02T04:14:47;101313.66;;;4.63;100.00
59103;BME280;43999;51.660;5.616;2023-04-02T04:17:25;101317.19;;;4.60;100.00
59103;BME280;43999;51.660;5.616;2023-04-02T04:20:24;101327.63;;;4.57;100.00
59103;BME280;43999;51.660;5.616;2023-04-02T04:23:31;101329.41;;;4.54;100.00
59103;BME280;43999;51.660;5.616;2023-04-02T04:26:28;101347.56;;;4.54;100.00
59103;BME280;43999;51.660;5.616;2023-04-02T04:29:45;101351.13;;;4.51;100.00
59103;BME280;43999;51.660;5.616;2023-04-02T04:32:37;101351.19;;;4.48;100.00
59103;BME280;43999;51.660;5.616;2023-04-02T04:35:45;101367.53;;;4.52;100.00
59103;BME280;43999;51.660;5.616;2023-04-02T04:38:36;101373.78;;;4.41;100.00
59103;BME280;43999;51.660;5.616;2023-04-02T04:41:27;101385.06;;;4.40;100.00
59103;BME280;43999;51.660;5.616;2023-04-02T04:46:58;101388.59;;;4.36;100.00
59103;BME280;43999;51.660;5.616;2023-04-02T04:49:40;101396.44;;;4.33;100.00
59103;BME280;43999;51.660;5.616;2023-04-02T04:52:29;101402.56;;;4.29;100.00
59103;BME280;43999;51.660;5.616;2023-04-02T04:55:34;101412.09;;;4.28;100.00
59103;BME280;43999;51.660;5.616;2023-04-02T05:02:04;101421.63;;;4.28;100.00
59103;BME280;43999;51.660;5.616;2023-04-02T05:04:52;101426.88;;;4.25;100.00
59103;BME280;43999;51.660;5.616;2023-04-02T05:07:52;101433.75;;;4.26;100.00
59103;BME280;43999;51.660;5.616;2023-04-02T05:10:43;101437.28;;;4.22;100.00
59103;BME280;43999;51.660;5.616;2023-04-02T05:13:43;101442.53;;;4.19;100.00
59103;BME280;43999;51.660;5.616;2023-04-02T05:19:11;101444.19;;;4.21;100.00
59103;BME280;43999;51.660;5.616;2023-04-02T05:21:56;101451.09;;;4.22;100.00
59103;BME280;43999;51.660;5.616;2023-04-02T05:24:41;101459.69;;;4.26;100.00
59103;BME280;43999;51.660;5.616;2023-04-02T05:27:47;101464.06;;;4.24;100.00
59103;BME280;43999;51.660;5.616;2023-04-02T05:33:05;101475.22;;;4.27;100.00
59103;BME280;43999;51.660;5.616;2023-04-02T05:35:47;101485.69;;;4.21;100.00
59103;BME280;43999;51.660;5.616;2023-04-02T05:38:24;101491.69;;;4.26;100.00
59103;BME280;43999;51.660;5.616;2023-04-02T05:44:05;101485.81;;;4.15;100.00
59103;BME280;43999;51.660;5.616;2023-04-02T05:52:22;101504.94;;;4.09;100.00
59103;BME280;43999;51.660;5.616;2023-04-02T05:57:49;101532.72;;;4.01;100.00
59103;BME280;43999;51.660;5.616;2023-04-02T06:01:01;101533.72;;;3.94;100.00
59103;BME280;43999;51.660;5.616;2023-04-02T06:03:54;101542.31;;;3.96;100.00
59103;BME280;43999;51.660;5.616;2023-04-02T06:15:37;101585.66;;;3.88;100.00
59103;BME280;43999;51.660;5.616;2023-04-02T06:21:03;101585.75;;;3.82;100.00
59103;BME280;43999;51.660;5.616;2023-04-02T06:26:36;101598.75;;;3.79;100.00
59103;BME280;43999;51.660;5.616;2023-04-02T06:29:34;101607.38;;;3.79;100.00
59103;BME280;43999;51.660;5.616;2023-04-02T06:32:12;101616.88;;;3.80;100.00
59103;BME280;43999;51.660;5.616;2023-04-02T06:34:44;101622.13;;;3.74;100.00
59103;BME280;43999;51.660;5.616;2023-04-02T06:37:33;101613.50;;;3.73;100.00
59103;BME280;43999;51.660;5.616;2023-04-02T06:42:48;101634.31;;;3.67;100.00
59103;BME280;43999;51.660;5.616;2023-04-02T06:45:40;101637.75;;;3.69;100.00
59103;BME280;43999;51.660;5.616;2023-04-02T06:48:28;101652.44;;;3.69;100.00
59103;BME280;43999;51.660;5.616;2023-04-02T06:51:10;101651.56;;;3.68;100.00
59103;BME280;43999;51.660;5.616;2023-04-02T06:53:48;101654.13;;;3.71;100.00
59103;BME280;43999;51.660;5.616;2023-04-02T06:57:04;101675.78;;;3.67;100.00
59103;BME280;43999;51.660;5.616;2023-04-02T06:59:39;101672.38;;;3.62;100.00
59103;BME280;43999;51.660;5.616;2023-04-02T07:02:33;101693.97;;;3.66;100.00
59103;BME280;43999;51.660;5.616;2023-04-02T07:05:10;101687.00;;;3.68;100.00
59103;BME280;43999;51.660;5.616;2023-04-02T07:07:47;101697.44;;;3.63;100.00
59103;BME280;43999;51.660;5.616;2023-04-02T07:10:22;101707.78;;;3.65;100.00
59103;BME280;43999;51.660;5.616;2023-04-02T07:12:51;101714.72;;;3.63;100.00
59103;BME280;43999;51.660;5.616;2023-04-02T07:15:20;101719.91;;;3.63;100.00
59103;BME280;43999;51.660;5.616;2023-04-02T07:17:53;101734.53;;;3.65;100.00
59103;BME280;43999;51.660;5.616;2023-04-02T07:20:34;101727.59;;;3.72;100.00
59103;BME280;43999;51.660;5.616;2023-04-02T07:23:08;101734.50;;;3.68;100.00
59103;BME280;43999;51.660;5.616;2023-04-02T07:25:36;101743.13;;;3.72;100.00
59103;BME280;43999;51.660;5.616;2023-04-02T07:28:05;101743.13;;;3.73;100.00
59103;BME280;43999;51.660;5.616;2023-04-02T07:30:34;101747.41;;;3.76;100.00
59103;BME280;43999;51.660;5.616;2023-04-02T07:33:06;101754.34;;;3.74;100.00
59103;BME280;43999;51.660;5.616;2023-04-02T07:35:37;101750.03;;;3.73;100.00
59103;BME280;43999;51.660;5.616;2023-04-02T07:38:06;101760.34;;;3.76;100.00
59103;BME280;43999;51.660;5.616;2023-04-02T07:40:34;101761.28;;;3.72;100.00
59103;BME280;43999;51.660;5.616;2023-04-02T07:43:03;101759.56;;;3.71;100.00
59103;BME280;43999;51.660;5.616;2023-04-02T07:45:34;101769.09;;;3.67;100.00
59103;BME280;43999;51.660;5.616;2023-04-02T07:48:16;101775.09;;;3.72;100.00
59103;BME280;43999;51.660;5.616;2023-04-02T07:50:57;101771.63;;;3.75;100.00
59103;BME280;43999;51.660;5.616;2023-04-02T07:53:35;101777.69;;;3.72;100.00
59103;BME280;43999;51.660;5.616;2023-04-02T07:56:13;101779.44;;;3.72;100.00
59103;BME280;43999;51.660;5.616;2023-04-02T07:58:45;101779.44;;;3.72;100.00
59103;BME280;43999;51.660;5.616;2023-04-02T08:01:18;101788.03;;;3.74;100.00
59103;BME280;43999;51.660;5.616;2023-04-02T08:03:57;101796.63;;;3.77;100.00
59103;BME280;43999;51.660;5.616;2023-04-02T08:06:28;101810.44;;;3.81;100.00
59103;BME280;43999;51.660;5.616;2023-04-02T08:08:57;101796.63;;;3.79;100.00
59103;BME280;43999;51.660;5.616;2023-04-02T08:11:26;101806.09;;;3.82;100.00
59103;BME280;43999;51.660;5.616;2023-04-02T08:13:58;101811.28;;;3.82;100.00
59103;BME280;43999;51.660;5.616;2023-04-02T08:16:27;101819.13;;;3.77;100.00
59103;BME280;43999;51.660;5.616;2023-04-02T08:18:59;101819.97;;;3.77;100.00
59103;BME280;43999;51.660;5.616;2023-04-02T08:21:33;101824.28;;;3.80;100.00
59103;BME280;43999;51.660;5.616;2023-04-02T08:24:04;101829.47;;;3.79;100.00
59103;BME280;43999;51.660;5.616;2023-04-02T08:26:32;101834.66;;;3.79;100.00
59103;BME280;43999;51.660;5.616;2023-04-02T08:29:02;101837.16;;;3.88;100.00
59103;BME280;43999;51.660;5.616;2023-04-02T08:31:40;101843.22;;;3.87;100.00
59103;BME280;43999;51.660;5.616;2023-04-02T08:34:12;101856.09;;;3.94;100.00
59103;BME280;43999;51.660;5.616;2023-04-02T08:36:43;101862.09;;;3.98;100.00
59103;BME280;43999;51.660;5.616;2023-04-02T08:39:14;101869.03;;;3.99;100.00
59103;BME280;43999;51.660;5.616;2023-04-02T08:41:53;101872.38;;;4.07;100.00
59103;BME280;43999;51.660;5.616;2023-04-02T08:44:58;101878.50;;;4.03;100.00
59103;BME280;43999;51.660;5.616;2023-04-02T08:47:55;101885.38;;;4.06;100.00
59103;BME280;43999;51.660;5.616;2023-04-02T08:50:47;101886.28;;;4.05;100.00
59103;BME280;43999;51.660;5.616;2023-04-02T08:53:38;101894.88;;;4.07;100.00
59103;BME280;43999;51.660;5.616;2023-04-02T08:59:00;101909.59;;;4.08;100.00
59103;BME280;43999;51.660;5.616;2023-04-02T09:05:28;101925.16;;;4.06;100.00
59103;BME280;43999;51.660;5.616;2023-04-02T09:08:02;101932.00;;;4.13;100.00
59103;BME280;43999;51.660;5.616;2023-04-02T09:10:41;101928.56;;;4.11;100.00
59103;BME280;43999;51.660;5.616;2023-04-02T09:13:29;101930.28;;;4.14;100.00
59103;BME280;43999;51.660;5.616;2023-04-02T09:16:15;101934.59;;;4.10;100.00
59103;BME280;43999;51.660;5.616;2023-04-02T09:18:51;101937.25;;;4.04;100.00
59103;BME280;43999;51.660;5.616;2023-04-02T09:21:37;101931.22;;;4.04;100.00
59103;BME280;43999;51.660;5.616;2023-04-02T09:24:11;101934.69;;;4.01;100.00
59103;BME280;43999;51.660;5.616;2023-04-02T09:26:44;101949.38;;;4.04;100.00
59103;BME280;43999;51.660;5.616;2023-04-02T09:29:41;101967.47;;;4.10;100.00
59103;BME280;43999;51.660;5.616;2023-04-02T09:32:49;101965.75;;;4.10;100.00
59103;BME280;43999;51.660;5.616;2023-04-02T09:35:57;101979.63;;;4.06;100.00
59103;BME280;43999;51.660;5.616;2023-04-02T09:38:28;101981.38;;;4.00;100.00
59103;BME280;43999;51.660;5.616;2023-04-02T09:41:06;101990.06;;;3.97;100.00
59103;BME280;43999;51.660;5.616;2023-04-02T09:43:46;101983.16;;;3.94;100.00
59103;BME280;43999;51.660;5.616;2023-04-02T09:46:24;101995.22;;;4.02;100.00
59103;BME280;43999;51.660;5.616;2023-04-02T09:48:58;101997.81;;;4.02;100.00
59103;BME280;43999;51.660;5.616;2023-04-02T09:51:31;102005.59;;;4.05;100.00
59103;BME280;43999;51.660;5.616;2023-04-02T09:54:11;102013.34;;;4.05;100.00
59103;BME280;43999;51.660;5.616;2023-04-02T09:57:03;102019.41;;;4.04;100.00
59103;BME280;43999;51.660;5.616;2023-04-02T09:59:36;102019.41;;;4.04;100.00
59103;BME280;43999;51.660;5.616;2023-04-02T10:02:30;102021.06;;;4.14;100.00
59103;BME280;43999;51.660;5.616;2023-04-02T10:05:05;102024.50;;;4.18;100.00
59103;BME280;43999;51.660;5.616;2023-04-02T10:08:26;102040.00;;;4.24;100.00
59103;BME280;43999;51.660;5.616;2023-04-02T10:11:00;102035.69;;;4.23;100.00
59103;BME280;43999;51.660;5.616;2023-04-02T10:14:13;102042.63;;;4.21;100.00
59103;BME280;43999;51.660;5.616;2023-04-02T10:17:11;102055.56;;;4.24;100.00
59103;BME280;43999;51.660;5.616;2023-04-02T10:20:21;102053.00;;;4.19;100.00
59103;BME280;43999;51.660;5.616;2023-04-02T10:22:51;102051.28;;;4.18;100.00
59103;BME280;43999;51.660;5.616;2023-04-02T10:25:25;102059.94;;;4.20;100.00
59103;BME280;43999;51.660;5.616;2023-04-02T10:28:59;102060.72;;;4.30;100.00
59103;BME280;43999;51.660;5.616;2023-04-02T10:35:23;102066.59;;;4.51;100.00
59103;BME280;43999;51.660;5.616;2023-04-02T10:39:06;102061.31;;;4.61;100.00
59103;BME280;43999;51.660;5.616;2023-04-02T10:57:17;102098.72;;;5.29;100.00
59103;BME280;43999;51.660;5.616;2023-04-02T11:03:09;102099.44;;;5.40;100.00
59103;BME280;43999;51.660;5.616;2023-04-02T11:05:55;102098.56;;;5.41;100.00
59103;BME280;43999;51.660;5.616;2023-04-02T11:08:47;102098.56;;;5.43;100.00
59103;BME280;43999;51.660;5.616;2023-04-02T11:11:39;102107.09;;;5.52;100.00
59103;BME280;43999;51.660;5.616;2023-04-02T11:14:34;102094.03;;;5.57;100.00
59103;BME280;43999;51.660;5.616;2023-04-02T11:17:17;102109.63;;;5.57;100.00
59103;BME280;43999;51.660;5.616;2023-04-02T11:19:48;102114.00;;;5.55;100.00
59103;BME280;43999;51.660;5.616;2023-04-02T11:22:43;102121.75;;;5.58;100.00
59103;BME280;43999;51.660;5.616;2023-04-02T11:25:21;102123.31;;;5.71;100.00
59103;BME280;43999;51.660;5.616;2023-04-02T11:27:48;102132.78;;;5.77;100.00
59103;BME280;43999;51.660;5.616;2023-04-02T11:30:25;102141.44;;;5.76;100.00
59103;BME280;43999;51.660;5.616;2023-04-02T11:39:54;102150.28;;;5.66;100.00
59103;BME280;43999;51.660;5.616;2023-04-02T11:42:33;102153.78;;;5.62;100.00
59103;BME280;43999;51.660;5.616;2023-04-02T11:50:47;102175.19;;;5.82;100.00
59103;BME280;43999;51.660;5.616;2023-04-02T11:53:35;102172.59;;;5.81;100.00
59103;BME280;43999;51.660;5.616;2023-04-02T11:56:43;102182.22;;;5.75;100.00
59103;BME280;43999;51.660;5.616;2023-04-02T11:59:41;102177.03;;;5.74;100.00
59103;BME280;43999;51.660;5.616;2023-04-02T12:02:29;102186.59;;;5.72;100.00
59103;BME280;43999;51.660;5.616;2023-04-02T12:05:29;102187.44;;;5.74;100.00
59103;BME280;43999;51.660;5.616;2023-04-02T12:11:01;102192.28;;;6.05;100.00
59103;BME280;43999;51.660;5.616;2023-04-02T12:13:48;102192.75;;;6.35;100.00
59103;BME280;43999;51.660;5.616;2023-04-02T12:16:19;102189.75;;;6.61;100.00
59103;BME280;43999;51.660;5.616;2023-04-02T12:18:53;102190.91;;;6.97;100.00
59103;BME280;43999;51.660;5.616;2023-04-02T12:21:32;102197.16;;;7.35;100.00
59103;BME280;43999;51.660;5.616;2023-04-02T12:24:02;102203.50;;;7.67;100.00
59103;BME280;43999;51.660;5.616;2023-04-02T12:27:17;102209.00;;;7.97;100.00
59103;BME280;43999;51.660;5.616;2023-04-02T12:30:20;102214.06;;;8.05;100.00
59103;BME280;43999;51.660;5.616;2023-04-02T12:33:52;102210.03;;;8.31;100.00
59103;BME280;43999;51.660;5.616;2023-04-02T12:36:28;102213.84;;;8.55;100.00
59103;BME280;43999;51.660;5.616;2023-04-02T12:38:57;102214.47;;;8.66;100.00
59103;BME280;43999;51.660;5.616;2023-04-02T12:41:33;102209.94;;;8.73;95.58
59103;BME280;43999;51.660;5.616;2023-04-02T12:44:11;102219.66;;;8.68;92.25
59103;BME280;43999;51.660;5.616;2023-04-02T12:46:49;102218.44;;;8.45;99.12
59103;BME280;43999;51.660;5.616;2023-04-02T12:49:41;102211.25;;;8.53;98.85
59103;BME280;43999;51.660;5.616;2023-04-02T12:52:21;102213.56;;;8.67;96.02
59103;BME280;43999;51.660;5.616;2023-04-02T12:55:01;102207.44;;;8.68;97.75
59103;BME280;43999;51.660;5.616;2023-04-02T12:57:37;102207.09;;;8.82;96.50
59103;BME280;43999;51.660;5.616;2023-04-02T13:03:27;102214.91;;;8.84;98.90
59103;BME280;43999;51.660;5.616;2023-04-02T13:05:56;102217.50;;;8.85;98.22
59103;BME280;43999;51.660;5.616;2023-04-02T13:08:41;102216.09;;;9.06;93.98
59103;BME280;43999;51.660;5.616;2023-04-02T13:11:09;102212.06;;;9.59;87.88
59103;BME280;43999;51.660;5.616;2023-04-02T13:13:42;102206.97;;;9.54;91.17
59103;BME280;43999;51.660;5.616;2023-04-02T13:16:22;102221.69;;;9.90;90.01
59103;BME280;43999;51.660;5.616;2023-04-02T13:19:32;102217.25;;;10.51;83.12
59103;BME280;43999;51.660;5.616;2023-04-02T13:22:01;102225.03;;;10.81;80.10
59103;BME280;43999;51.660;5.616;2023-04-02T13:24:55;102213.88;;;11.01;81.92
59103;BME280;43999;51.660;5.616;2023-04-02T13:27:23;102215.88;;;11.20;74.41
59103;BME280;43999;51.660;5.616;2023-04-02T13:29:53;102215.28;;;11.11;74.71
59103;BME280;43999;51.660;5.616;2023-04-02T13:32:30;102220.91;;;11.01;80.19
59103;BME280;43999;51.660;5.616;2023-04-02T13:35:06;102215.19;;;11.15;77.30
59103;BME280;43999;51.660;5.616;2023-04-02T13:37:38;102216.44;;;11.29;75.81
59103;BME280;43999;51.660;5.616;2023-04-02T13:40:12;102204.06;;;11.57;69.40
59103;BME280;43999;51.660;5.616;2023-04-02T13:42:45;102211.16;;;11.78;73.49
59103;BME280;43999;51.660;5.616;2023-04-02T13:45:27;102212.59;;;11.87;72.16
59103;BME280;43999;51.660;5.616;2023-04-02T13:48:46;102222.03;;;11.93;69.41
59103;BME280;43999;51.660;5.616;2023-04-02T13:54:15;102218.81;;;11.84;67.62
59103;BME280;43999;51.660;5.616;2023-04-02T13:56:49;102224.22;;;11.56;70.12
59103;BME280;43999;51.660;5.616;2023-04-02T13:59:38;102220.09;;;11.49;68.57
59103;BME280;43999;51.660;5.616;2023-04-02T14:02:16;102228.53;;;11.59;69.37
59103;BME280;43999;51.660;5.616;2023-04-02T14:05:02;102225.78;;;11.62;68.11
59103;BME280;43999;51.660;5.616;2023-04-02T14:26:15;102253.34;;;12.23;69.72
59103;BME280;43999;51.660;5.616;2023-04-02T14:32:45;102261.63;;;12.80;65.03
59103;BME280;43999;51.660;5.616;2023-04-02T14:35:35;102263.97;;;13.08;65.05
59103;BME280;43999;51.660;5.616;2023-04-02T14:38:35;102256.88;;;13.31;57.90
59103;BME280;43999;51.660;5.616;2023-04-02T14:44:49;102261.38;;;13.49;57.46
59103;BME280;43999;51.660;5.616;2023-04-02T14:47:42;102266.13;;;13.41;61.20
59103;BME280;43999;51.660;5.616;2023-04-02T14:54:36;102260.69;;;13.85;59.50
59103;BME280;43999;51.660;5.616;2023-04-02T14:57:46;102279.78;;;14.09;54.35
59103;BME280;43999;51.660;5.616;2023-04-02T15:00:40;102267.38;;;13.92;56.09
59103;BME280;43999;51.660;5.616;2023-04-02T15:03:35;102273.44;;;14.13;58.41
59103;BME280;43999;51.660;5.616;2023-04-02T15:06:33;102290.84;;;14.37;60.61
59103;BME280;43999;51.660;5.616;2023-04-02T15:12:31;102286.25;;;14.59;55.38
59103;BME280;43999;51.660;5.616;2023-04-02T15:18:23;102290.91;;;14.54;56.94
59103;BME280;43999;51.660;5.616;2023-04-02T15:21:51;102285.31;;;14.79;54.12
59103;BME280;43999;51.660;5.616;2023-04-02T15:28:12;102287.69;;;14.66;49.89
59103;BME280;43999;51.660;5.616;2023-04-02T15:30:55;102294.91;;;14.63;51.93
59103;BME280;43999;51.660;5.616;2023-04-02T15:33:56;102296.03;;;14.76;49.75
59103;BME280;43999;51.660;5.616;2023-04-02T15:45:44;102302.50;;;14.50;50.47
59103;BME280;43999;51.660;5.616;2023-04-02T16:00:10;102314.00;;;14.68;49.12
59103;BME280;43999;51.660;5.616;2023-04-02T16:03:55;102316.44;;;14.73;47.73
59103;BME280;43999;51.660;5.616;2023-04-02T16:10:58;102320.75;;;14.35;50.89
59103;BME280;43999;51.660;5.616;2023-04-02T16:18:15;102320.91;;;13.11;53.83
59103;BME280;43999;51.660;5.616;2023-04-02T16:21:06;102333.13;;;12.44;56.36
59103;BME280;43999;51.660;5.616;2023-04-02T16:30:54;102350.19;;;10.46;61.87
59103;BME280;43999;51.660;5.616;2023-04-02T16:34:58;102353.31;;;9.96;61.39
59103;BME280;43999;51.660;5.616;2023-04-02T16:48:26;102362.84;;;8.92;68.96
59103;BME280;43999;51.660;5.616;2023-04-02T16:55:36;102378.19;;;8.67;73.15
59103;BME280;43999;51.660;5.616;2023-04-02T17:03:29;102391.63;;;8.49;76.26
59103;BME280;43999;51.660;5.616;2023-04-02T17:13:17;102407.53;;;8.35;78.00
59103;BME280;43999;51.660;5.616;2023-04-02T17:16:29;102408.59;;;8.26;77.42
59103;BME280;43999;51.660;5.616;2023-04-02T17:19:19;102409.63;;;8.17;77.34
59103;BME280;43999;51.660;5.616;2023-04-02T17:22:00;102418.47;;;8.08;77.92
59103;BME280;43999;51.660;5.616;2023-04-02T17:24:59;102432.47;;;8.06;78.08
59103;BME280;43999;51.660;5.616;2023-04-02T17:27:38;102430.78;;;8.02;78.55
59103;BME280;43999;51.660;5.616;2023-04-02T17:30:36;102434.38;;;7.95;79.06
59103;BME280;43999;51.660;5.616;2023-04-02T17:33:16;102444.94;;;7.90;78.25
59103;BME280;43999;51.660;5.616;2023-04-02T17:36:11;102442.44;;;7.82;78.11
59103;BME280;43999;51.660;5.616;2023-04-02T17:39:35;102452.13;;;7.74;79.51
59103;BME280;43999;51.660;5.616;2023-04-02T17:43:10;102454.88;;;7.65;79.43
59103;BME280;43999;51.660;5.616;2023-04-02T17:54:05;102467.41;;;7.41;81.83
59103;BME280;43999;51.660;5.616;2023-04-02T17:56:34;102468.34;;;7.37;83.50
59103;BME280;43999;51.660;5.616;2023-04-02T17:59:14;102475.34;;;7.33;83.00
59103;BME280;43999;51.660;5.616;2023-04-02T18:02:29;102472.84;;;7.26;82.96
59103;BME280;43999;51.660;5.616;2023-04-02T18:15:53;102501.88;;;6.99;87.70
59103;BME280;43999;51.660;5.616;2023-04-02T18:22:22;102502.06;;;6.82;89.08
59103;BME280;43999;51.660;5.616;2023-04-02T18:25:15;102504.75;;;6.76;89.27
59103;BME280;43999;51.660;5.616;2023-04-02T18:28:20;102516.06;;;6.72;91.39
59103;BME280;43999;51.660;5.616;2023-04-02T18:35:05;102530.09;;;6.60;92.44
59103;BME280;43999;51.660;5.616;2023-04-02T18:41:13;102534.56;;;6.49;93.74
59103;BME280;43999;51.660;5.616;2023-04-02T18:45:23;102537.22;;;6.43;95.14
59103;BME280;43999;51.660;5.616;2023-04-02T18:51:59;102546.88;;;6.28;95.45
59103;BME280;43999;51.660;5.616;2023-04-02T18:58:18;102556.50;;;6.19;97.24